createdAt,value
2023-08-03T00:01:29.207Z,98.48
2023-08-03T00:04:02.264Z,98.55
2023-08-03T00:06:34.086Z,98.64
2023-08-03T00:09:05.433Z,98.81
2023-08-03T00:11:39.893Z,99.07
2023-08-03T00:14:08.517Z,98.98
2023-08-03T00:16:38.753Z,99.27
2023-08-03T00:19:08.063Z,99.57
2023-08-03T00:21:40.454Z,99.58
2023-08-03T00:24:09.193Z,99.44
2023-08-03T00:26:42.487Z,99.73
2023-08-03T00:29:10.880Z,99.44
2023-08-03T00:31:40.222Z,99.77
2023-08-03T00:34:09.113Z,100.00
2023-08-03T00:36:42.797Z,100.00
2023-08-03T00:39:11.758Z,100.00
2023-08-03T00:41:45.126Z,100.00
2023-08-03T00:44:16.352Z,100.00
2023-08-03T00:46:44.669Z,100.00
2023-08-03T00:49:15.576Z,100.00
2023-08-03T00:51:44.516Z,100.00
2023-08-03T00:54:18.312Z,100.00
2023-08-03T00:56:49.709Z,100.00
2023-08-03T00:59:18.327Z,100.00
2023-08-03T01:01:59.829Z,100.00
2023-08-03T01:04:29.436Z,100.00
2023-08-03T01:07:06.364Z,100.00
2023-08-03T01:09:36.220Z,100.00
2023-08-03T01:12:07.375Z,100.00
2023-08-03T01:14:35.925Z,100.00
2023-08-03T01:17:05.061Z,100.00
2023-08-03T01:19:36.164Z,100.00
2023-08-03T01:22:05.265Z,100.00
2023-08-03T01:24:36.903Z,100.00
2023-08-03T01:27:06.576Z,100.00
2023-08-03T01:29:35.884Z,100.00
2023-08-03T01:32:06.646Z,100.00
2023-08-03T01:34:38.620Z,100.00
2023-08-03T01:37:14.688Z,100.00
2023-08-03T01:39:48.421Z,100.00
2023-08-03T01:42:17.676Z,100.00
2023-08-03T01:44:49.666Z,100.00
2023-08-03T01:47:26.348Z,100.00
2023-08-03T01:49:56.439Z,100.00
2023-08-03T01:52:25.017Z,100.00
2023-08-03T01:54:57.551Z,100.00
2023-08-03T01:57:26.579Z,100.00
2023-08-03T01:59:57.634Z,100.00
2023-08-03T02:02:25.912Z,100.00
2023-08-03T02:04:54.428Z,100.00
2023-08-03T02:07:44.362Z,100.00
2023-08-03T02:10:14.961Z,100.00
2023-08-03T02:12:44.695Z,100.00
2023-08-03T02:15:14.060Z,100.00
2023-08-03T02:17:45.382Z,100.00
2023-08-03T02:20:15.143Z,100.00
2023-08-03T02:22:51.002Z,100.00
2023-08-03T02:25:25.423Z,100.00
2023-08-03T02:27:54.064Z,100.00
2023-08-03T02:30:23.635Z,100.00
2023-08-03T02:32:54.686Z,100.00
2023-08-03T02:35:27.585Z,100.00
2023-08-03T02:37:57.556Z,100.00
2023-08-03T02:40:27.243Z,100.00
2023-08-03T02:42:55.449Z,100.00
2023-08-03T02:45:27.785Z,100.00
2023-08-03T02:47:56.868Z,100.00
2023-08-03T02:50:26.315Z,100.00
2023-08-03T02:52:59.290Z,100.00
2023-08-03T02:55:29.370Z,100.00
2023-08-03T02:57:58.171Z,100.00
2023-08-03T03:00:29.405Z,100.00
2023-08-03T03:02:57.915Z,100.00
2023-08-03T03:05:26.990Z,100.00
2023-08-03T03:07:59.164Z,100.00
2023-08-03T03:10:28.923Z,100.00
2023-08-03T03:12:57.367Z,100.00
2023-08-03T03:15:30.535Z,100.00
2023-08-03T03:18:01.085Z,100.00
2023-08-03T03:20:33.562Z,100.00
2023-08-03T03:23:02.803Z,100.00
2023-08-03T03:25:32.662Z,100.00
2023-08-03T03:28:06.077Z,100.00
2023-08-03T03:30:36.186Z,100.00
2023-08-03T03:33:05.220Z,100.00
2023-08-03T03:35:37.260Z,100.00
2023-08-03T03:38:06.680Z,100.00
2023-08-03T03:40:38.705Z,100.00
2023-08-03T03:43:07.120Z,100.00
2023-08-03T03:45:36.091Z,100.00
2023-08-03T03:48:05.908Z,100.00
2023-08-03T03:50:34.997Z,100.00
2023-08-03T03:53:03.522Z,100.00
2023-08-03T03:55:33.753Z,100.00
2023-08-03T03:58:04.095Z,100.00
2023-08-03T04:00:36.070Z,100.00
2023-08-03T04:03:04.798Z,100.00
2023-08-03T04:05:37.778Z,100.00
2023-08-03T04:08:06.757Z,100.00
2023-08-03T04:10:36.734Z,100.00
2023-08-03T04:13:06.574Z,100.00
2023-08-03T04:15:35.294Z,100.00
2023-08-03T04:18:06.765Z,100.00
2023-08-03T04:20:37.454Z,100.00
2023-08-03T04:23:06.108Z,100.00
2023-08-03T04:25:34.976Z,100.00
2023-08-03T04:28:16.753Z,100.00
2023-08-03T04:30:47.898Z,100.00
2023-08-03T04:33:17.531Z,100.00
2023-08-03T04:35:45.973Z,100.00
2023-08-03T04:38:16.642Z,100.00
2023-08-03T04:40:47.727Z,100.00
2023-08-03T04:43:17.110Z,100.00
2023-08-03T04:45:47.589Z,100.00
2023-08-03T04:48:19.857Z,100.00
2023-08-03T04:50:50.044Z,100.00
2023-08-03T04:53:20.811Z,100.00
2023-08-03T04:55:49.514Z,100.00
2023-08-03T04:58:17.866Z,100.00
2023-08-03T05:00:49.892Z,100.00
2023-08-03T05:03:18.575Z,100.00
2023-08-03T05:05:49.142Z,100.00
2023-08-03T05:08:17.507Z,100.00
2023-08-03T05:10:48.046Z,100.00
2023-08-03T05:13:18.663Z,100.00
2023-08-03T05:15:50.775Z,100.00
2023-08-03T05:18:18.962Z,100.00
2023-08-03T05:20:48.779Z,100.00
2023-08-03T05:23:17.097Z,100.00
2023-08-03T05:25:45.349Z,100.00
2023-08-03T05:28:14.448Z,100.00
2023-08-03T05:30:42.855Z,100.00
2023-08-03T05:33:12.586Z,100.00
2023-08-03T05:35:41.227Z,100.00
2023-08-03T05:38:09.810Z,100.00
2023-08-03T05:40:42.698Z,100.00
2023-08-03T05:43:12.686Z,100.00
2023-08-03T05:45:45.039Z,100.00
2023-08-03T05:48:17.752Z,100.00
2023-08-03T05:50:49.606Z,100.00
2023-08-03T05:53:22.643Z,100.00
2023-08-03T05:56:01.597Z,100.00
2023-08-03T05:58:41.050Z,100.00
2023-08-03T06:01:13.006Z,100.00
2023-08-03T06:03:45.727Z,100.00
2023-08-03T06:06:18.131Z,100.00
2023-08-03T06:08:49.248Z,100.00
2023-08-03T06:11:26.920Z,98.62
2023-08-03T06:13:57.931Z,97.64
2023-08-03T06:16:27.726Z,96.65
2023-08-03T06:19:00.355Z,96.40
2023-08-03T06:21:30.002Z,96.61
2023-08-03T06:24:01.819Z,96.43
2023-08-03T06:26:33.783Z,96.04
2023-08-03T06:29:03.705Z,94.67
2023-08-03T06:31:37.035Z,93.58
2023-08-03T06:34:06.738Z,92.57
2023-08-03T06:36:38.253Z,91.30
2023-08-03T06:39:07.597Z,89.89
2023-08-03T06:41:38.374Z,88.83
2023-08-03T06:44:11.837Z,88.44
2023-08-03T06:46:41.367Z,86.95
2023-08-03T06:49:13.321Z,85.73
2023-08-03T06:51:42.693Z,84.62
2023-08-03T06:54:13.183Z,84.03
2023-08-03T06:56:42.942Z,84.04
2023-08-03T06:59:13.975Z,82.81
2023-08-03T07:01:43.085Z,82.69
2023-08-03T07:04:12.845Z,81.71
2023-08-03T07:18:06.230Z,79.83
2023-08-03T07:20:35.539Z,80.27
2023-08-03T07:23:03.859Z,80.81
2023-08-03T07:25:34.747Z,81.52
2023-08-03T07:28:04.449Z,81.54
2023-08-03T07:30:33.232Z,81.78
2023-08-03T07:33:01.590Z,82.08
2023-08-03T07:35:31.094Z,82.24
2023-08-03T07:37:59.356Z,82.56
2023-08-03T07:40:27.553Z,82.84
2023-08-03T07:42:55.788Z,83.15
2023-08-03T07:47:55.161Z,84.28
2023-08-03T07:50:23.784Z,83.97
2023-08-03T07:52:53.310Z,83.17
2023-08-03T07:55:21.725Z,83.02
2023-08-03T07:57:49.885Z,82.93
2023-08-03T08:00:18.245Z,82.15
2023-08-03T08:02:46.439Z,81.32
2023-08-03T08:05:14.810Z,80.55
2023-08-03T08:07:43.011Z,79.27
2023-08-03T08:10:13.096Z,78.68
2023-08-03T08:12:41.184Z,77.69
2023-08-03T08:15:09.779Z,77.29
2023-08-03T08:17:38.160Z,77.34
2023-08-03T08:20:07.432Z,77.66
2023-08-03T08:22:36.916Z,77.73
2023-08-03T08:25:05.561Z,77.90
2023-08-03T08:27:35.442Z,77.68
2023-08-03T08:30:03.560Z,76.17
2023-08-03T08:32:31.807Z,76.07
2023-08-03T08:35:00.049Z,75.84
2023-08-03T08:37:30.429Z,75.39
2023-08-03T08:39:59.798Z,74.33
2023-08-03T08:42:30.055Z,73.58
2023-08-03T08:44:59.691Z,73.49
2023-08-03T08:47:28.026Z,73.70
2023-08-03T08:52:28.724Z,74.54
2023-08-03T09:00:53.611Z,72.83
2023-08-03T09:03:21.992Z,72.78
2023-08-03T09:08:49.104Z,72.35
2023-08-03T09:11:17.371Z,70.00
2023-08-03T09:13:50.862Z,67.71
2023-08-03T09:16:28.110Z,66.03
2023-08-03T09:18:56.341Z,61.62
2023-08-03T09:29:03.089Z,57.69
2023-08-03T09:31:33.341Z,58.56
2023-08-03T09:34:02.589Z,60.13
2023-08-03T09:36:32.024Z,61.10
2023-08-03T09:44:19.517Z,64.14
2023-08-03T09:46:51.069Z,64.80
2023-08-03T09:49:19.478Z,66.13
2023-08-03T09:54:30.490Z,67.72
2023-08-03T09:59:38.342Z,67.50
2023-08-03T10:02:11.976Z,66.62
2023-08-03T10:04:44.140Z,65.43
2023-08-03T10:07:16.985Z,63.67
2023-08-03T10:09:49.063Z,62.25
2023-08-03T10:12:20.703Z,60.42
2023-08-03T10:14:52.912Z,60.15
2023-08-03T10:17:24.116Z,59.02
2023-08-03T10:19:53.973Z,59.61
2023-08-03T10:22:22.166Z,59.66
2023-08-03T10:25:17.389Z,59.04
2023-08-03T10:28:12.599Z,58.05
2023-08-03T10:31:12.435Z,57.78
2023-08-03T10:34:07.052Z,56.82
2023-08-03T10:36:51.089Z,57.25
2023-08-03T10:39:53.974Z,57.63
2023-08-03T10:42:28.049Z,56.99
2023-08-03T10:44:57.491Z,55.93
2023-08-03T10:47:29.197Z,57.17
2023-08-03T10:50:01.559Z,57.15
2023-08-03T10:52:31.878Z,57.90
2023-08-03T10:55:23.722Z,57.88
2023-08-03T10:57:52.429Z,57.92
2023-08-03T11:00:20.685Z,57.69
2023-08-03T11:02:49.257Z,57.24
2023-08-03T11:05:20.087Z,56.58
2023-08-03T11:07:49.332Z,56.56
2023-08-03T11:10:18.836Z,57.30
2023-08-03T11:12:47.728Z,57.62
2023-08-03T11:15:19.635Z,58.39
2023-08-03T11:17:50.490Z,58.51
2023-08-03T11:20:22.103Z,58.74
2023-08-03T11:22:50.382Z,57.75
2023-08-03T11:25:21.476Z,57.17
2023-08-03T11:27:49.761Z,55.14
2023-08-03T11:30:22.016Z,53.77
2023-08-03T11:32:50.478Z,53.34
2023-08-03T11:35:19.980Z,52.12
2023-08-03T11:37:48.238Z,51.89
2023-08-03T11:40:17.776Z,51.37
2023-08-03T11:42:47.501Z,50.99
2023-08-03T11:45:15.698Z,49.93
2023-08-03T11:47:45.687Z,50.55
2023-08-03T11:50:13.942Z,50.10
2023-08-03T11:52:43.713Z,52.23
2023-08-03T11:55:26.422Z,52.62
2023-08-03T11:58:12.607Z,53.48
2023-08-03T12:00:41.177Z,54.91
2023-08-03T12:03:11.951Z,54.31
2023-08-03T12:06:00.343Z,54.13
2023-08-03T12:08:44.455Z,53.20
2023-08-03T12:11:15.806Z,51.91
2023-08-03T12:16:17.796Z,54.04
2023-08-03T12:18:46.010Z,54.73
2023-08-03T12:21:14.461Z,55.30
2023-08-03T12:23:43.962Z,56.10
2023-08-03T12:26:12.276Z,56.82
2023-08-03T12:28:40.368Z,56.98
2023-08-03T12:31:08.578Z,57.61
2023-08-03T12:33:39.396Z,56.95
2023-08-03T12:36:07.574Z,56.21
2023-08-03T12:38:35.785Z,55.91
2023-08-03T12:41:06.070Z,55.77
2023-08-03T12:43:34.884Z,54.16
2023-08-03T12:46:03.253Z,53.86
2023-08-03T12:48:31.599Z,52.85
2023-08-03T12:51:00.274Z,53.76
2023-08-03T12:53:29.029Z,54.56
2023-08-03T12:55:57.280Z,54.49
2023-08-03T12:58:26.840Z,55.46
2023-08-03T13:00:57.286Z,55.95
2023-08-03T13:03:25.572Z,56.67
2023-08-03T13:05:55.579Z,56.56
2023-08-03T13:08:24.094Z,55.29
2023-08-03T13:10:52.467Z,54.39
2023-08-03T13:13:20.646Z,53.67
2023-08-03T13:15:51.006Z,53.59
2023-08-03T13:18:19.813Z,52.73
2023-08-03T13:20:49.379Z,53.22
2023-08-03T13:23:18.007Z,53.93
2023-08-03T13:25:46.298Z,54.72
2023-08-03T13:28:14.389Z,56.02
2023-08-03T13:30:42.666Z,56.66
2023-08-03T13:33:12.362Z,57.20
2023-08-03T13:35:40.558Z,57.10
2023-08-03T13:38:08.800Z,56.84
2023-08-03T13:40:37.207Z,57.22
2023-08-03T13:43:05.364Z,57.05
2023-08-03T13:45:33.514Z,57.41
2023-08-03T13:48:02.017Z,57.87
2023-08-03T13:50:31.760Z,57.72
2023-08-03T13:53:00.447Z,58.01
2023-08-03T13:55:28.598Z,58.51
2023-08-03T14:00:29.122Z,57.37
2023-08-03T14:02:58.726Z,57.01
2023-08-03T14:07:59.989Z,55.63
2023-08-03T14:10:31.214Z,54.75
2023-08-03T14:13:01.854Z,54.56
2023-08-03T14:18:47.922Z,53.76
2023-08-03T14:23:22.105Z,53.95
2023-08-03T14:25:50.730Z,53.32
2023-08-03T14:30:50.043Z,52.44
2023-08-03T14:33:18.524Z,51.55
2023-08-03T14:35:46.764Z,50.55
2023-08-03T14:38:15.396Z,49.62
2023-08-03T14:40:49.186Z,48.75
2023-08-03T14:43:17.604Z,48.92
2023-08-03T14:45:51.586Z,48.55
2023-08-03T14:48:19.914Z,49.43
2023-08-03T14:50:52.973Z,50.80
2023-08-03T14:53:22.608Z,51.66
2023-08-03T14:58:32.269Z,50.71
2023-08-03T15:01:07.617Z,50.74
2023-08-03T15:03:38.587Z,49.62
2023-08-03T15:06:14.736Z,48.14
2023-08-03T15:08:43.265Z,47.95
2023-08-03T15:11:13.305Z,49.34
2023-08-03T15:13:45.653Z,51.16
2023-08-03T15:16:28.879Z,52.47
2023-08-03T15:18:58.681Z,53.51
2023-08-03T15:21:28.969Z,54.73
2023-08-03T15:24:00.037Z,54.92
2023-08-03T15:26:33.908Z,54.87
2023-08-03T15:29:05.016Z,54.80
2023-08-03T15:31:42.821Z,54.49
2023-08-03T15:34:12.224Z,52.86
2023-08-03T15:36:45.077Z,51.46
2023-08-03T15:39:18.657Z,51.53
2023-08-03T15:41:53.422Z,51.67
2023-08-03T15:44:32.547Z,52.45
2023-08-03T15:47:29.283Z,53.54
2023-08-03T15:49:52.809Z,54.07
2023-08-03T15:52:32.988Z,54.47
2023-08-03T15:57:42.577Z,55.42
2023-08-03T16:00:12.002Z,55.98
2023-08-03T16:02:40.788Z,55.71
2023-08-03T16:05:09.927Z,58.03
2023-08-03T16:07:38.173Z,60.08
2023-08-03T16:10:07.036Z,61.00
2023-08-03T16:12:35.252Z,62.31
2023-08-03T16:15:05.235Z,65.83
2023-08-03T16:17:33.456Z,68.04
2023-08-03T16:20:01.791Z,69.16
2023-08-03T16:22:30.164Z,69.73
2023-08-03T16:24:58.339Z,69.38
2023-08-03T16:27:26.480Z,68.99
2023-08-03T16:32:32.199Z,67.72
2023-08-03T16:35:04.087Z,66.46
2023-08-03T16:37:33.832Z,66.27
2023-08-03T16:40:02.127Z,66.94
2023-08-03T16:42:30.885Z,71.06
2023-08-03T16:44:59.826Z,74.15
2023-08-03T16:47:28.018Z,74.67
2023-08-03T16:49:57.637Z,74.04
2023-08-03T16:52:25.917Z,72.53
2023-08-03T16:54:54.173Z,71.82
2023-08-03T16:57:22.652Z,71.84
2023-08-03T16:59:51.114Z,72.37
2023-08-03T17:02:19.226Z,71.28
2023-08-03T17:04:47.558Z,70.76
2023-08-03T17:07:17.181Z,70.43
2023-08-03T17:09:45.467Z,69.26
2023-08-03T17:12:13.574Z,68.58
2023-08-03T17:14:41.659Z,67.82
2023-08-03T17:17:09.828Z,66.68
2023-08-03T17:19:38.008Z,68.07
2023-08-03T17:22:06.476Z,68.78
2023-08-03T17:24:36.209Z,69.42
2023-08-03T17:27:04.815Z,70.19
2023-08-03T17:29:32.992Z,70.00
2023-08-03T17:32:01.287Z,69.97
2023-08-03T17:34:29.588Z,69.68
2023-08-03T17:36:58.012Z,70.42
2023-08-03T17:39:26.535Z,69.74
2023-08-03T17:41:56.730Z,69.31
2023-08-03T17:44:24.700Z,69.24
2023-08-03T17:46:53.960Z,69.30
2023-08-03T17:49:22.199Z,69.87
2023-08-03T17:51:50.410Z,70.06
2023-08-03T17:54:19.528Z,70.55
2023-08-03T17:56:48.024Z,71.12
2023-08-03T17:59:17.860Z,71.41
2023-08-03T18:01:46.233Z,73.29
2023-08-03T18:04:14.326Z,74.36
2023-08-03T18:06:42.916Z,74.98
2023-08-03T18:09:12.165Z,74.06
2023-08-03T18:11:40.395Z,72.65
2023-08-03T18:14:08.805Z,70.44
2023-08-03T18:16:38.534Z,69.94
2023-08-03T18:19:06.879Z,70.05
2023-08-03T18:21:35.179Z,70.00
2023-08-03T18:24:03.341Z,69.41
2023-08-03T18:26:31.861Z,69.67
2023-08-03T18:29:00.191Z,70.16
2023-08-03T18:31:28.484Z,70.15
2023-08-03T18:33:58.356Z,70.64
2023-08-03T18:36:26.869Z,72.17
2023-08-03T18:38:55.683Z,74.93
2023-08-03T18:41:25.451Z,76.00
2023-08-03T18:43:54.138Z,75.73
2023-08-03T18:46:23.892Z,75.43
2023-08-03T18:48:52.015Z,74.54
2023-08-03T18:51:23.511Z,74.34
2023-08-03T18:53:53.551Z,74.18
2023-08-03T18:56:23.616Z,74.43
2023-08-03T18:58:52.413Z,74.91
2023-08-03T19:01:20.774Z,74.14
2023-08-03T19:03:53.146Z,72.95
2023-08-03T19:06:23.322Z,72.53
2023-08-03T19:08:51.695Z,72.54
2023-08-03T19:11:19.839Z,72.89
2023-08-03T19:13:48.306Z,73.19
2023-08-03T19:16:16.707Z,73.11
2023-08-03T19:18:45.037Z,72.49
2023-08-03T19:21:13.598Z,72.72
2023-08-03T19:23:43.524Z,72.85
2023-08-03T19:26:14.060Z,73.22
2023-08-03T19:28:42.330Z,73.51
2023-08-03T19:31:10.494Z,73.87
2023-08-03T19:33:38.930Z,74.34
2023-08-03T19:36:07.207Z,74.25
2023-08-03T19:38:35.504Z,74.62
2023-08-03T19:41:06.576Z,74.97
2023-08-03T19:43:34.815Z,75.26
2023-08-03T19:46:09.566Z,75.45
2023-08-03T19:48:37.941Z,75.89
2023-08-03T20:06:31.829Z,78.04
2023-08-03T20:09:00.296Z,78.35
2023-08-03T20:11:30.108Z,78.46
2023-08-03T20:13:58.335Z,78.65
2023-08-03T20:21:29.217Z,79.46
2023-08-03T20:23:57.962Z,79.60
2023-08-03T20:26:35.200Z,79.68
2023-08-03T20:29:06.334Z,79.70
2023-08-03T20:31:35.197Z,79.54
2023-08-03T20:36:35.016Z,79.54
2023-08-03T20:49:09.895Z,79.76
2023-08-03T20:51:38.197Z,79.78
2023-08-03T20:54:38.569Z,79.81
2023-08-03T20:56:54.525Z,79.87
2023-08-03T20:59:24.151Z,80.04
2023-08-03T21:01:53.921Z,79.95
2023-08-03T21:04:26.739Z,79.98
2023-08-03T21:06:57.713Z,79.73
2023-08-03T21:09:25.920Z,79.54
2023-08-03T21:11:54.175Z,79.55
2023-08-03T21:14:23.832Z,79.89
2023-08-03T21:16:52.123Z,79.82
2023-08-03T21:19:20.295Z,80.08
2023-08-03T21:21:49.574Z,80.33
2023-08-03T21:24:17.895Z,80.38
2023-08-03T21:26:46.732Z,80.39
2023-08-03T21:29:15.110Z,80.50
2023-08-03T21:34:17.704Z,80.64
2023-08-03T21:36:46.149Z,80.93
2023-08-03T21:39:14.782Z,81.12
2023-08-03T21:41:42.927Z,81.84
2023-08-03T21:44:11.120Z,81.99
2023-08-03T21:46:39.443Z,82.30
2023-08-03T21:49:09.143Z,82.74
2023-08-03T21:51:37.322Z,82.89
2023-08-03T21:54:05.712Z,83.22
2023-08-03T21:56:33.919Z,83.29
2023-08-03T21:59:02.322Z,83.33
2023-08-03T22:01:30.545Z,83.38
2023-08-03T22:03:58.872Z,83.53
2023-08-03T22:06:29.814Z,83.95
2023-08-03T22:08:58.003Z,83.93
2023-08-03T22:11:26.225Z,84.21
2023-08-03T22:14:03.911Z,84.43
2023-08-03T22:16:32.688Z,84.50
2023-08-03T22:19:00.887Z,84.95
2023-08-03T22:21:38.836Z,85.55
2023-08-03T22:24:07.639Z,85.79
2023-08-03T22:26:36.609Z,86.04
2023-08-03T22:29:08.239Z,86.02
2023-08-03T22:31:36.545Z,86.18
2023-08-03T22:34:04.656Z,86.05
2023-08-03T22:36:34.243Z,86.34
2023-08-03T22:39:02.665Z,86.42
2023-08-03T22:41:34.187Z,86.33
2023-08-03T22:44:02.395Z,86.22
2023-08-03T22:46:30.692Z,86.01
2023-08-03T22:48:58.946Z,85.98
2023-08-03T22:51:26.994Z,85.77
2023-08-03T22:53:56.561Z,85.59
2023-08-03T22:56:24.709Z,85.29
2023-08-03T22:58:52.880Z,85.42
2023-08-03T23:01:22.535Z,85.35
2023-08-03T23:03:51.151Z,85.19
2023-08-03T23:06:21.453Z,85.16
2023-08-03T23:08:49.870Z,85.02
2023-08-03T23:11:19.500Z,84.36
2023-08-03T23:13:47.725Z,84.12
2023-08-03T23:16:19.476Z,84.16
2023-08-03T23:18:47.875Z,83.81
2023-08-03T23:21:16.182Z,83.86
2023-08-03T23:23:44.374Z,84.25
2023-08-03T23:26:13.635Z,84.63
2023-08-03T23:28:43.888Z,85.03
2023-08-03T23:31:12.196Z,85.19
2023-08-03T23:33:40.890Z,85.04
2023-08-03T23:36:09.462Z,85.23
2023-08-03T23:38:37.626Z,85.31
2023-08-03T23:41:06.033Z,85.43
2023-08-03T23:43:34.498Z,85.24
2023-08-03T23:46:04.293Z,85.22
2023-08-03T23:48:32.484Z,84.88
2023-08-03T23:51:00.623Z,84.52
2023-08-03T23:53:28.691Z,83.61
2023-08-03T23:55:56.900Z,83.21
2023-08-03T23:58:25.196Z,82.74
